createdAt,value
2022-11-28T00:01:18.715Z,7.00
2022-11-28T00:03:45.162Z,7.09
2022-11-28T00:06:11.936Z,7.11
2022-11-28T00:08:38.513Z,7.07
2022-11-28T00:11:07.911Z,7.18
2022-11-28T00:13:34.849Z,7.10
2022-11-28T00:16:03.617Z,7.11
2022-11-28T00:18:31.037Z,7.27
2022-11-28T00:21:07.136Z,6.90
2022-11-28T00:23:33.764Z,7.00
2022-11-28T00:26:09.919Z,7.25
2022-11-28T00:28:37.352Z,7.27
2022-11-28T00:31:04.237Z,7.26
2022-11-28T00:33:31.740Z,7.35
2022-11-28T00:36:02.686Z,7.18
2022-11-28T00:38:29.944Z,7.47
2022-11-28T00:41:11.045Z,7.45
2022-11-28T00:43:37.795Z,7.51
2022-11-28T00:46:04.562Z,7.44
2022-11-28T00:48:32.796Z,7.44
2022-11-28T00:51:09.424Z,7.18
2022-11-28T00:53:37.014Z,7.42
2022-11-28T00:56:07.633Z,7.34
2022-11-28T00:58:35.412Z,7.40
2022-11-28T01:01:18.822Z,7.35
2022-11-28T01:03:46.377Z,7.03
2022-11-28T01:06:13.159Z,7.36
2022-11-28T01:08:39.586Z,7.34
2022-11-28T01:11:12.146Z,7.29
2022-11-28T01:13:39.325Z,7.30
2022-11-28T01:16:06.134Z,7.31
2022-11-28T01:18:32.655Z,7.29
2022-11-28T01:20:59.078Z,7.32
2022-11-28T01:23:25.551Z,7.23
2022-11-28T01:25:52.096Z,6.96
2022-11-28T01:28:18.557Z,7.02
2022-11-28T01:30:45.106Z,7.24
2022-11-28T01:33:11.570Z,7.24
2022-11-28T01:35:38.010Z,7.20
2022-11-28T01:38:04.388Z,6.98
2022-11-28T01:40:30.842Z,6.94
2022-11-28T01:42:57.333Z,7.10
2022-11-28T01:45:33.602Z,7.26
2022-11-28T01:48:02.893Z,7.18
2022-11-28T01:50:32.924Z,7.19
2022-11-28T01:53:03.492Z,6.91
2022-11-28T01:55:33.759Z,7.20
2022-11-28T01:58:00.373Z,7.13
2022-11-28T02:00:28.208Z,7.06
2022-11-28T02:03:05.830Z,7.13
2022-11-28T02:05:33.042Z,7.15
2022-11-28T02:07:59.664Z,6.92
2022-11-28T02:10:43.908Z,7.06
2022-11-28T02:13:22.435Z,6.67
2022-11-28T02:16:09.552Z,7.09
2022-11-28T02:18:50.182Z,7.09
2022-11-28T02:21:32.284Z,7.11
2022-11-28T02:24:16.992Z,6.90
2022-11-28T02:26:56.802Z,7.06
2022-11-28T02:29:23.162Z,7.03
2022-11-28T02:32:31.371Z,7.00
2022-11-28T02:35:30.041Z,7.03
2022-11-28T02:38:16.699Z,6.91
2022-11-28T02:41:19.380Z,7.00
2022-11-28T02:44:01.483Z,6.97
2022-11-28T02:46:40.931Z,6.46
2022-11-28T02:49:29.838Z,6.56
2022-11-28T02:52:03.288Z,6.55
2022-11-28T02:54:30.111Z,6.90
2022-11-28T02:56:56.649Z,6.95
2022-11-28T02:59:33.429Z,6.79
2022-11-28T03:02:01.308Z,6.90
2022-11-28T03:04:36.834Z,6.88
2022-11-28T03:07:22.135Z,6.86
2022-11-28T03:10:13.451Z,6.87
2022-11-28T03:13:06.316Z,6.98
2022-11-28T03:15:49.630Z,7.03
2022-11-28T03:18:24.582Z,7.09
2022-11-28T03:21:01.464Z,7.06
2022-11-28T03:23:42.705Z,7.06
2022-11-28T03:26:21.208Z,7.11
2022-11-28T03:29:12.362Z,7.09
2022-11-28T03:31:54.703Z,7.10
2022-11-28T03:34:24.730Z,6.59
2022-11-28T03:36:56.862Z,6.96
2022-11-28T03:39:28.857Z,6.68
2022-11-28T03:42:02.952Z,6.98
2022-11-28T03:44:35.618Z,6.76
2022-11-28T03:47:05.138Z,7.08
2022-11-28T03:49:39.131Z,7.07
2022-11-28T03:52:08.121Z,7.10
2022-11-28T03:54:40.711Z,6.99
2022-11-28T03:57:38.241Z,7.02
2022-11-28T04:00:08.046Z,6.98
2022-11-28T04:02:41.268Z,6.64
2022-11-28T04:05:27.672Z,7.08
2022-11-28T04:08:02.098Z,7.03
2022-11-28T04:10:45.528Z,7.09
2022-11-28T04:13:26.414Z,6.64
2022-11-28T04:16:05.091Z,7.02
2022-11-28T04:18:50.063Z,7.10
2022-11-28T04:21:22.632Z,7.08
2022-11-28T04:23:51.002Z,7.05
2022-11-28T04:26:22.621Z,7.05
2022-11-28T04:28:52.333Z,7.04
2022-11-28T04:31:21.176Z,6.68
2022-11-28T04:33:53.363Z,7.04
2022-11-28T04:36:22.609Z,7.12
2022-11-28T04:38:50.983Z,6.63
2022-11-28T04:41:22.465Z,6.90
2022-11-28T04:43:55.522Z,7.03
2022-11-28T04:46:26.812Z,7.08
2022-11-28T04:48:53.520Z,7.03
2022-11-28T04:51:38.122Z,7.04
2022-11-28T04:54:16.908Z,7.04
2022-11-28T04:56:55.973Z,6.98
2022-11-28T04:59:26.150Z,7.09
2022-11-28T05:01:52.689Z,6.58
2022-11-28T05:04:19.248Z,7.03
2022-11-28T05:06:45.742Z,7.12
2022-11-28T05:09:12.960Z,6.79
2022-11-28T05:11:39.660Z,7.10
2022-11-28T05:14:06.648Z,6.73
2022-11-28T05:16:33.322Z,7.09
2022-11-28T05:18:59.842Z,6.80
2022-11-28T05:21:26.284Z,7.15
2022-11-28T05:23:52.829Z,7.16
2022-11-28T05:26:21.213Z,6.73
2022-11-28T05:28:50.453Z,7.15
2022-11-28T05:31:18.823Z,7.04
2022-11-28T05:33:45.553Z,7.17
2022-11-28T05:36:13.851Z,7.16
2022-11-28T05:38:40.997Z,7.20
2022-11-28T05:41:07.640Z,7.22
2022-11-28T05:43:34.728Z,6.82
2022-11-28T05:46:01.261Z,7.18
2022-11-28T05:48:27.838Z,7.15
2022-11-28T05:50:54.404Z,7.14
2022-11-28T05:53:20.978Z,7.27
2022-11-28T05:55:47.600Z,7.36
2022-11-28T05:58:14.119Z,6.90
2022-11-28T06:00:40.691Z,7.36
2022-11-28T06:03:07.152Z,7.32
2022-11-28T06:05:43.193Z,7.37
2022-11-28T06:08:13.611Z,7.26
2022-11-28T06:10:40.744Z,7.36
2022-11-28T06:13:07.642Z,7.23
2022-11-28T06:15:37.955Z,7.06
2022-11-28T06:18:04.959Z,6.95
2022-11-28T06:20:31.420Z,7.38
2022-11-28T06:22:57.836Z,7.38
2022-11-28T06:25:24.500Z,7.29
2022-11-28T06:27:50.937Z,7.42
2022-11-28T06:30:17.521Z,7.40
2022-11-28T06:32:43.971Z,7.45
2022-11-28T06:35:10.450Z,7.45
2022-11-28T06:37:36.888Z,6.95
2022-11-28T06:40:06.135Z,7.61
2022-11-28T06:42:35.196Z,7.52
2022-11-28T06:45:02.628Z,7.55
2022-11-28T06:47:29.041Z,7.77
2022-11-28T06:49:55.904Z,7.44
2022-11-28T06:52:22.472Z,7.80
2022-11-28T06:54:48.881Z,7.87
2022-11-28T06:57:16.232Z,7.69
2022-11-28T06:59:42.972Z,7.41
2022-11-28T07:02:11.670Z,7.72
2022-11-28T07:04:38.365Z,7.47
2022-11-28T07:07:05.016Z,7.54
2022-11-28T07:09:31.554Z,7.84
2022-11-28T07:11:58.080Z,7.96
2022-11-28T07:14:24.584Z,7.87
2022-11-28T07:16:51.155Z,7.93
2022-11-28T07:19:17.720Z,7.85
2022-11-28T07:21:44.203Z,7.78
2022-11-28T07:24:10.645Z,7.61
2022-11-28T07:26:37.111Z,7.85
2022-11-28T07:29:03.802Z,7.81
2022-11-28T07:31:30.274Z,7.81
2022-11-28T07:33:56.774Z,7.67
2022-11-28T07:36:25.761Z,7.33
2022-11-28T07:38:55.191Z,7.68
2022-11-28T07:41:26.484Z,7.79
2022-11-28T07:43:56.151Z,7.79
2022-11-28T07:46:23.967Z,7.79
2022-11-28T07:48:50.618Z,7.92
2022-11-28T07:51:26.538Z,7.73
2022-11-28T07:53:53.145Z,7.85
2022-11-28T07:56:22.507Z,7.82
2022-11-28T07:58:49.617Z,7.81
2022-11-28T08:01:30.561Z,7.49
2022-11-28T08:03:57.891Z,8.03
2022-11-28T08:06:27.503Z,7.94
2022-11-28T08:08:55.372Z,7.51
2022-11-28T08:11:24.085Z,7.95
2022-11-28T08:13:52.824Z,8.13
2022-11-28T08:16:23.490Z,8.02
2022-11-28T08:18:51.653Z,7.92
2022-11-28T08:21:24.189Z,7.96
2022-11-28T08:23:51.601Z,7.89
2022-11-28T08:26:20.112Z,8.09
2022-11-28T08:28:46.961Z,8.07
2022-11-28T08:31:13.494Z,8.07
2022-11-28T08:33:40.628Z,7.77
2022-11-28T08:36:09.726Z,7.87
2022-11-28T08:38:37.172Z,8.11
2022-11-28T08:41:05.764Z,8.20
2022-11-28T08:43:33.897Z,8.11
2022-11-28T08:46:00.660Z,8.14
2022-11-28T08:48:27.193Z,8.06
2022-11-28T08:50:53.784Z,8.25
2022-11-28T08:53:20.335Z,8.14
2022-11-28T08:55:46.839Z,8.16
2022-11-28T08:58:13.958Z,8.25
2022-11-28T09:00:41.836Z,8.00
2022-11-28T09:03:13.276Z,8.18
2022-11-28T09:05:39.787Z,8.01
2022-11-28T09:08:10.274Z,8.24
2022-11-28T09:10:39.928Z,8.01
2022-11-28T09:13:07.246Z,8.30
2022-11-28T09:15:33.995Z,8.03
2022-11-28T09:18:01.364Z,8.25
2022-11-28T09:20:27.780Z,8.28
2022-11-28T09:22:54.286Z,8.37
2022-11-28T09:25:20.752Z,8.34
2022-11-28T09:27:47.275Z,8.05
2022-11-28T09:30:14.184Z,8.46
2022-11-28T09:32:40.775Z,8.33
2022-11-28T09:35:07.544Z,8.51
2022-11-28T09:37:34.010Z,8.54
2022-11-28T09:40:14.394Z,8.67
2022-11-28T09:42:42.560Z,8.75
2022-11-28T09:45:19.156Z,8.74
2022-11-28T09:47:49.995Z,8.75
2022-11-28T09:50:21.237Z,8.88
2022-11-28T09:53:03.651Z,8.91
2022-11-28T09:56:11.035Z,8.86
2022-11-28T09:58:50.271Z,8.84
2022-11-28T10:01:38.252Z,9.00
2022-11-28T10:04:22.791Z,8.69
2022-11-28T10:07:27.594Z,8.86
2022-11-28T10:10:14.705Z,8.73
2022-11-28T10:12:41.156Z,8.78
2022-11-28T10:15:10.718Z,8.79
2022-11-28T10:17:49.665Z,8.69
2022-11-28T10:20:22.610Z,8.74
2022-11-28T10:23:02.676Z,8.45
2022-11-28T10:25:39.330Z,8.83
2022-11-28T10:28:07.810Z,8.85
2022-11-28T10:30:41.199Z,8.84
2022-11-28T10:33:13.804Z,8.86
2022-11-28T10:35:48.562Z,8.58
2022-11-28T10:38:17.177Z,8.54
2022-11-28T10:40:55.880Z,8.83
2022-11-28T10:43:36.473Z,9.01
2022-11-28T10:46:17.590Z,8.76
2022-11-28T10:49:09.094Z,8.97
2022-11-28T10:51:58.451Z,8.98
2022-11-28T10:54:40.147Z,8.97
2022-11-28T10:57:19.515Z,9.20
2022-11-28T11:00:11.783Z,9.14
2022-11-28T11:02:45.573Z,9.32
2022-11-28T11:05:16.563Z,9.39
2022-11-28T11:07:58.716Z,9.29
2022-11-28T11:10:40.752Z,9.25
2022-11-28T11:13:29.151Z,9.40
2022-11-28T11:16:09.715Z,9.24
2022-11-28T11:18:50.504Z,9.36
2022-11-28T11:21:25.845Z,9.30
2022-11-28T11:24:31.065Z,9.31
2022-11-28T11:27:30.060Z,9.36
2022-11-28T11:29:56.568Z,9.36
2022-11-28T11:32:30.508Z,9.44
2022-11-28T11:34:59.089Z,9.44
2022-11-28T11:37:31.453Z,9.36
2022-11-28T11:39:59.341Z,9.23
2022-11-28T11:42:30.577Z,9.21
2022-11-28T11:44:57.985Z,9.27
2022-11-28T11:47:41.203Z,9.33
2022-11-28T11:50:16.927Z,9.57
2022-11-28T11:52:43.480Z,9.45
2022-11-28T11:55:16.652Z,9.08
2022-11-28T11:57:55.101Z,9.61
2022-11-28T12:00:26.807Z,9.55
2022-11-28T12:03:04.651Z,9.83
2022-11-28T12:06:12.791Z,9.94
2022-11-28T12:08:39.315Z,9.92
2022-11-28T12:11:29.384Z,9.95
2022-11-28T12:14:03.429Z,10.08
2022-11-28T12:16:42.469Z,10.07
2022-11-28T12:19:36.517Z,9.81
2022-11-28T12:22:08.809Z,10.08
2022-11-28T12:25:10.630Z,10.04
2022-11-28T12:28:14.441Z,10.20
2022-11-28T12:31:18.353Z,10.04
2022-11-28T12:33:55.655Z,10.15
2022-11-28T12:36:54.569Z,10.19
2022-11-28T12:39:30.067Z,10.12
2022-11-28T12:41:59.244Z,9.97
2022-11-28T12:44:55.078Z,9.99
2022-11-28T12:47:42.890Z,9.81
2022-11-28T12:50:20.902Z,10.23
2022-11-28T12:53:07.714Z,9.93
2022-11-28T12:55:52.521Z,10.09
2022-11-28T12:58:22.703Z,10.21
2022-11-28T13:01:02.514Z,10.36
2022-11-28T13:03:36.014Z,10.26
2022-11-28T13:06:37.623Z,10.47
2022-11-28T13:09:16.393Z,10.48
2022-11-28T13:12:17.954Z,10.30
2022-11-28T13:15:03.231Z,10.10
2022-11-28T13:18:02.534Z,9.77
2022-11-28T13:20:39.118Z,9.88
2022-11-28T13:23:24.609Z,9.90
2022-11-28T13:26:05.394Z,9.96
2022-11-28T13:28:56.424Z,10.13
2022-11-28T13:31:40.606Z,9.96
2022-11-28T13:34:14.701Z,10.29
2022-11-28T13:39:54.716Z,9.78
2022-11-28T13:43:03.883Z,9.97
2022-11-28T13:45:39.186Z,10.16
2022-11-28T13:48:57.656Z,9.98
2022-11-28T13:51:30.550Z,10.12
2022-11-28T13:54:17.134Z,10.25
2022-11-28T13:56:45.977Z,10.30
2022-11-28T13:59:20.040Z,10.21
2022-11-28T14:01:52.865Z,10.37
2022-11-28T14:04:19.675Z,9.92
2022-11-28T14:06:52.194Z,9.76
2022-11-28T14:09:49.077Z,9.79
2022-11-28T14:12:32.776Z,9.62
2022-11-28T14:15:16.984Z,9.65
2022-11-28T14:17:53.524Z,9.53
2022-11-28T14:20:35.048Z,9.46
2022-11-28T14:23:26.539Z,9.67
2022-11-28T14:25:54.508Z,9.47
2022-11-28T14:28:28.488Z,9.50
2022-11-28T14:31:10.196Z,9.43
2022-11-28T14:33:40.914Z,9.34
2022-11-28T14:36:22.355Z,9.33
2022-11-28T14:39:31.981Z,9.31
2022-11-28T14:42:04.249Z,8.96
2022-11-28T14:44:55.371Z,9.24
2022-11-28T14:47:21.853Z,9.12
2022-11-28T14:49:49.237Z,9.11
2022-11-28T14:52:39.549Z,9.05
2022-11-28T14:55:12.729Z,8.94
2022-11-28T14:57:55.998Z,8.96
2022-11-28T15:00:28.379Z,9.02
2022-11-28T15:03:13.402Z,9.01
2022-11-28T15:05:46.356Z,8.57
2022-11-28T15:08:18.742Z,8.90
2022-11-28T15:10:58.078Z,8.61
2022-11-28T15:13:39.616Z,8.92
2022-11-28T15:16:10.550Z,8.86
2022-11-28T15:18:39.380Z,8.71
2022-11-28T15:21:11.321Z,8.90
2022-11-28T15:23:38.295Z,8.91
2022-11-28T15:26:05.849Z,8.83
2022-11-28T15:28:33.215Z,8.94
2022-11-28T15:31:02.552Z,8.95
2022-11-28T15:33:30.077Z,8.89
2022-11-28T15:36:00.817Z,8.91
2022-11-28T15:38:30.163Z,8.83
2022-11-28T15:40:58.964Z,8.77
2022-11-28T15:43:25.787Z,8.78
2022-11-28T15:46:20.126Z,8.63
2022-11-28T15:48:52.838Z,8.64
2022-11-28T15:51:27.084Z,8.68
2022-11-28T15:53:53.817Z,8.57
2022-11-28T15:56:20.295Z,8.70
2022-11-28T15:58:47.256Z,8.58
2022-11-28T16:01:24.924Z,8.56
2022-11-28T16:04:14.834Z,8.67
2022-11-28T16:06:44.069Z,8.58
2022-11-28T16:09:10.551Z,8.74
2022-11-28T16:11:37.154Z,8.72
2022-11-28T16:14:09.406Z,8.64
2022-11-28T16:16:38.898Z,8.46
2022-11-28T16:19:26.425Z,8.10
2022-11-28T16:21:56.956Z,8.18
2022-11-28T16:24:43.157Z,8.51
2022-11-28T16:27:25.082Z,8.49
2022-11-28T16:29:51.616Z,8.44
2022-11-28T16:32:39.627Z,8.52
2022-11-28T16:35:11.729Z,8.39
2022-11-28T16:37:38.603Z,8.36
2022-11-28T16:40:23.492Z,8.61
2022-11-28T16:42:54.023Z,8.58
2022-11-28T16:45:33.016Z,8.65
2022-11-28T16:48:02.445Z,8.77
2022-11-28T16:50:28.998Z,8.68
2022-11-28T16:52:58.883Z,8.58
2022-11-28T16:55:31.588Z,8.78
2022-11-28T16:58:07.288Z,8.60
2022-11-28T17:00:34.737Z,8.31
2022-11-28T17:03:01.609Z,8.51
2022-11-28T17:05:28.083Z,8.66
2022-11-28T17:07:54.761Z,8.22
2022-11-28T17:10:21.386Z,8.41
2022-11-28T17:12:47.897Z,8.55
2022-11-28T17:15:16.657Z,8.56
2022-11-28T17:17:43.389Z,8.45
2022-11-28T17:20:12.462Z,8.37
2022-11-28T17:22:43.965Z,8.37
2022-11-28T17:25:19.361Z,8.01
2022-11-28T17:27:47.026Z,8.50
2022-11-28T17:30:18.724Z,8.36
2022-11-28T17:32:45.622Z,8.11
2022-11-28T17:35:20.950Z,8.34
2022-11-28T17:37:47.465Z,8.27
2022-11-28T17:40:13.981Z,8.19
2022-11-28T17:42:40.476Z,8.16
2022-11-28T17:45:14.333Z,8.18
2022-11-28T17:47:40.878Z,7.82
2022-11-28T17:50:07.928Z,8.17
2022-11-28T17:52:34.453Z,7.75
2022-11-28T17:55:06.289Z,7.75
2022-11-28T17:57:34.098Z,8.23
2022-11-28T18:00:00.740Z,7.89
2022-11-28T18:02:27.632Z,8.19
2022-11-28T18:04:54.162Z,8.04
2022-11-28T18:07:20.654Z,8.10
2022-11-28T18:09:47.141Z,8.18
2022-11-28T18:12:14.004Z,8.25
2022-11-28T18:14:40.623Z,8.15
2022-11-28T18:17:07.117Z,8.12
2022-11-28T18:19:33.636Z,8.07
2022-11-28T18:22:00.092Z,7.76
2022-11-28T18:24:26.534Z,8.12
2022-11-28T18:26:53.037Z,8.05
2022-11-28T18:29:19.608Z,8.05
2022-11-28T18:31:46.058Z,7.71
2022-11-28T18:34:12.579Z,7.95
2022-11-28T18:36:40.132Z,7.94
2022-11-28T18:39:11.285Z,8.02
2022-11-28T18:41:38.032Z,7.73
2022-11-28T18:44:05.609Z,8.05
2022-11-28T18:46:33.471Z,7.80
2022-11-28T18:49:00.029Z,7.70
2022-11-28T18:51:29.077Z,7.51
2022-11-28T18:53:56.579Z,7.90
2022-11-28T18:56:23.999Z,7.85
2022-11-28T18:58:52.805Z,7.58
2022-11-28T19:01:22.653Z,7.74
2022-11-28T19:03:51.547Z,7.39
2022-11-28T19:06:18.385Z,7.70
2022-11-28T19:08:44.892Z,7.75
2022-11-28T19:11:13.910Z,7.79
2022-11-28T19:13:43.455Z,7.61
2022-11-28T19:16:19.112Z,7.55
2022-11-28T19:18:45.930Z,7.62
2022-11-28T19:21:18.258Z,7.60
2022-11-28T19:23:44.896Z,7.58
2022-11-28T19:26:13.687Z,7.63
2022-11-28T19:28:41.253Z,7.38
2022-11-28T19:31:10.890Z,7.70
2022-11-28T19:33:37.535Z,7.45
2022-11-28T19:36:06.137Z,7.59
2022-11-28T19:38:37.357Z,7.60
2022-11-28T19:41:15.465Z,7.63
2022-11-28T19:43:42.417Z,7.75
2022-11-28T19:46:09.667Z,7.52
2022-11-28T19:48:37.982Z,7.19
2022-11-28T19:51:05.101Z,7.58
2022-11-28T19:53:33.525Z,7.49
2022-11-28T19:56:04.995Z,7.15
2022-11-28T19:58:31.511Z,7.38
2022-11-28T20:01:15.410Z,7.12
2022-11-28T20:03:43.007Z,7.32
2022-11-28T20:06:11.690Z,7.30
2022-11-28T20:08:38.949Z,7.34
2022-11-28T20:11:10.379Z,7.40
2022-11-28T20:13:36.919Z,7.27
2022-11-28T20:16:05.522Z,7.20
2022-11-28T20:18:32.970Z,7.20
2022-11-28T20:21:25.514Z,7.19
2022-11-28T20:23:54.541Z,6.86
2022-11-28T20:26:23.519Z,7.16
2022-11-28T20:28:49.986Z,7.08
2022-11-28T20:31:32.171Z,7.14
2022-11-28T20:33:58.655Z,7.14
2022-11-28T20:36:27.133Z,6.98
2022-11-28T20:38:54.862Z,7.16
2022-11-28T20:41:23.321Z,7.15
2022-11-28T20:43:50.626Z,7.03
2022-11-28T20:46:31.808Z,6.88
2022-11-28T20:49:01.258Z,6.74
2022-11-28T20:51:30.140Z,6.84
2022-11-28T20:53:57.865Z,6.79
2022-11-28T20:56:27.092Z,6.42
2022-11-28T20:58:53.567Z,6.89
2022-11-28T21:01:23.111Z,6.80
2022-11-28T21:03:50.793Z,6.90
2022-11-28T21:06:18.129Z,6.93
2022-11-28T21:08:44.791Z,6.81
2022-11-28T21:11:30.633Z,6.98
2022-11-28T21:14:01.690Z,6.66
2022-11-28T21:16:30.373Z,6.89
2022-11-28T21:18:58.818Z,6.72
2022-11-28T21:21:27.595Z,6.65
2022-11-28T21:23:59.177Z,6.48
2022-11-28T21:26:41.708Z,6.46
2022-11-28T21:29:21.278Z,6.40
2022-11-28T21:31:53.682Z,6.73
2022-11-28T21:34:20.359Z,6.78
2022-11-28T21:36:47.348Z,6.72
2022-11-28T21:39:19.078Z,6.48
2022-11-28T21:41:45.893Z,6.75
2022-11-28T21:44:12.401Z,6.59
2022-11-28T21:46:38.853Z,6.54
2022-11-28T21:49:05.301Z,6.51
2022-11-28T21:51:31.724Z,6.28
2022-11-28T21:53:58.182Z,6.54
2022-11-28T21:56:25.725Z,6.64
2022-11-28T21:58:52.365Z,6.73
2022-11-28T22:01:19.307Z,6.49
2022-11-28T22:03:45.825Z,6.94
2022-11-28T22:06:23.643Z,6.43
2022-11-28T22:08:50.951Z,6.73
2022-11-28T22:11:18.597Z,6.64
2022-11-28T22:13:46.055Z,6.80
2022-11-28T22:16:15.649Z,6.79
2022-11-28T22:18:42.391Z,6.76
2022-11-28T22:21:49.443Z,6.52
2022-11-28T22:23:56.395Z,6.81
2022-11-28T22:26:22.921Z,6.87
2022-11-28T22:28:53.518Z,6.85
2022-11-28T22:31:20.972Z,6.64
2022-11-28T22:33:49.559Z,6.96
2022-11-28T22:36:18.717Z,6.60
2022-11-28T22:38:46.252Z,6.82
2022-11-28T22:41:23.359Z,6.92
2022-11-28T22:43:55.476Z,6.62
2022-11-28T22:46:22.344Z,6.75
2022-11-28T22:48:49.235Z,6.45
2022-11-28T22:51:21.517Z,6.42
2022-11-28T22:53:51.826Z,6.79
2022-11-28T22:56:18.237Z,6.72
2022-11-28T22:58:45.571Z,6.68
2022-11-28T23:01:27.331Z,6.99
2022-11-28T23:03:54.960Z,6.69
2022-11-28T23:06:27.620Z,6.67
2022-11-28T23:08:55.595Z,6.64
2022-11-28T23:11:25.682Z,6.74
2022-11-28T23:13:52.532Z,6.33
2022-11-28T23:16:21.818Z,6.44
2022-11-28T23:18:50.715Z,6.64
2022-11-28T23:21:18.377Z,6.62
2022-11-28T23:23:45.137Z,6.63
2022-11-28T23:26:23.768Z,6.30
2022-11-28T23:28:51.193Z,6.31
2022-11-28T23:31:23.282Z,6.51
2022-11-28T23:33:50.240Z,6.43
2022-11-28T23:36:28.536Z,6.10
2022-11-28T23:39:00.507Z,6.11
2022-11-28T23:41:29.330Z,6.04
2022-11-28T23:43:56.132Z,6.02
2022-11-28T23:46:23.718Z,6.10
2022-11-28T23:48:50.683Z,6.00
2022-11-28T23:51:19.209Z,6.01
2022-11-28T23:53:45.815Z,6.02
2022-11-28T23:56:33.789Z,5.75
2022-11-28T23:59:02.502Z,6.03
